Estación de Casa Rosada
Ultimos registro cada 15 minutos 38
| N° | Estación | Fecha / Hora | Temperatura | Humedad | Lluvia | Velocidad | Dirección | Radiación | Presion |
| 38 | Casa Rosada | 08-05-2026 09:15 | 12,3 | 47 | 0 | 0,4 | 163 | 295 | 1014,3 |
| 37 | Casa Rosada | 08-05-2026 09:00 | 9,1 | 57 | 0 | 0,4 | 167 | 269 | 1014 |
| 36 | Casa Rosada | 08-05-2026 08:45 | 7,7 | 60 | 0 | 0,4 | 108 | 53 | 1014,1 |
| 35 | Casa Rosada | 08-05-2026 08:30 | 7,6 | 60 | 0 | 0,4 | 181 | 23 | 1013,9 |
| 34 | Casa Rosada | 08-05-2026 08:15 | 7,3 | 62 | 0 | 0,4 | 182 | 19 | 1013,9 |
| 33 | Casa Rosada | 08-05-2026 08:00 | 7,4 | 61 | 0 | 0,4 | 167 | 16 | 1013,9 |
| 32 | Casa Rosada | 08-05-2026 07:45 | 7,5 | 62 | 0 | 1,8 | 190 | 16 | 1013,8 |
| 31 | Casa Rosada | 08-05-2026 07:30 | 7,4 | 62 | 0 | 0,4 | 158 | 11 | 1013,4 |
| 30 | Casa Rosada | 08-05-2026 07:15 | 7,1 | 64 | 0 | 0,9 | 167 | 0 | 1013,5 |
| 29 | Casa Rosada | 08-05-2026 07:00 | 7,3 | 63 | 0 | 0,4 | 181 | 0 | 1013,6 |
| 28 | Casa Rosada | 08-05-2026 06:45 | 7,1 | 65 | 0 | 0,9 | 188 | 0 | 1013,4 |
| 27 | Casa Rosada | 08-05-2026 06:30 | 7,2 | 64 | 0 | 0,4 | 193 | 0 | 1013,4 |
| 26 | Casa Rosada | 08-05-2026 06:15 | 8,6 | 60 | 0 | 0,9 | 181 | 0 | 1013,4 |
| 25 | Casa Rosada | 08-05-2026 06:00 | 7,7 | 64 | 0 | 0,9 | 150 | 0 | 1013,2 |
| 24 | Casa Rosada | 08-05-2026 05:45 | 7,8 | 64 | 0 | 0,4 | 177 | 0 | 1013,2 |
| 23 | Casa Rosada | 08-05-2026 05:30 | 7,7 | 65 | 0 | 0,4 | 204 | 0 | 1013 |
| 22 | Casa Rosada | 08-05-2026 05:15 | 7,7 | 64 | 0 | 0,9 | 144 | 0 | 1012,9 |
| 21 | Casa Rosada | 08-05-2026 05:00 | 7,8 | 64 | 0 | 0,4 | 150 | 0 | 1012,8 |
| 20 | Casa Rosada | 08-05-2026 04:45 | 8 | 64 | 0 | 0,4 | 167 | 0 | 1012,8 |
| 19 | Casa Rosada | 08-05-2026 04:30 | 8,1 | 64 | 0 | 0,9 | 181 | 0 | 1013 |
| 18 | Casa Rosada | 08-05-2026 04:15 | 7,9 | 65 | 0 | 1,3 | 177 | 0 | 1012,9 |
| 17 | Casa Rosada | 08-05-2026 04:00 | 8,1 | 64 | 0 | 1,3 | 167 | 0 | 1012,8 |
| 16 | Casa Rosada | 08-05-2026 03:45 | 8,4 | 63 | 0 | 0,9 | 190 | 0 | 1012,8 |
| 15 | Casa Rosada | 08-05-2026 03:30 | 8,9 | 62 | 0 | 0,9 | 184 | 0 | 1013 |
| 14 | Casa Rosada | 08-05-2026 03:15 | 8,8 | 62 | 0 | 0,4 | 167 | 0 | 1013,3 |
| 13 | Casa Rosada | 08-05-2026 03:00 | 9 | 62 | 0 | 0,9 | 177 | 0 | 1013,4 |
| 12 | Casa Rosada | 08-05-2026 02:45 | 8,9 | 62 | 0 | 0,4 | 163 | 0 | 1013,4 |
| 11 | Casa Rosada | 08-05-2026 02:30 | 9,4 | 61 | 0 | 0,4 | 181 | 0 | 1013,3 |
| 10 | Casa Rosada | 08-05-2026 02:15 | 9,9 | 60 | 0 | 1,8 | 205 | 0 | 1013,3 |
| 9 | Casa Rosada | 08-05-2026 02:00 | 9,3 | 62 | 0 | 0,9 | 167 | 0 | 1013,2 |
| 8 | Casa Rosada | 08-05-2026 01:45 | 9,4 | 61 | 0 | 0,4 | 162 | 0 | 1013,4 |
| 7 | Casa Rosada | 08-05-2026 01:30 | 9,8 | 61 | 0 | 1,3 | 177 | 0 | 1013,5 |
| 6 | Casa Rosada | 08-05-2026 01:15 | 10,2 | 60 | 0 | 0,9 | 205 | 0 | 1013,7 |
| 5 | Casa Rosada | 08-05-2026 01:00 | 10,5 | 59 | 0 | 0,4 | 150 | 0 | 1013,4 |
| 4 | Casa Rosada | 08-05-2026 00:45 | 10,3 | 60 | 0 | 0,4 | 123 | 0 | 1013,4 |
| 3 | Casa Rosada | 08-05-2026 00:30 | 10,4 | 59 | 0 | 0,4 | 167 | 0 | 1013,5 |
| 2 | Casa Rosada | 08-05-2026 00:15 | 11 | 58 | 0 | 0 | 159 | 0 | 1013,9 |
| 1 | Casa Rosada | 08-05-2026 00:00 | 11,3 | 58 | 0 | 1,3 | 167 | 0 | 1013,8 |